sensor_id;sensor_type;location;lat;lon;timestamp;pressure;altitude;pressure_sealevel;temperature;humidity
75646;BME280;64237;52.438;13.240;2023-01-24T00:00:55;103528.34;;;2.14;79.18
75646;BME280;64237;52.438;13.240;2023-01-24T00:03:20;103517.53;;;2.12;78.55
75646;BME280;64237;52.438;13.240;2023-01-24T00:05:47;103520.16;;;2.25;78.03
75646;BME280;64237;52.438;13.240;2023-01-24T00:08:15;103524.38;;;2.18;78.85
75646;BME280;64237;52.438;13.240;2023-01-24T00:10:41;103519.63;;;2.09;77.41
75646;BME280;64237;52.438;13.240;2023-01-24T00:13:06;103506.00;;;2.20;78.87
75646;BME280;64237;52.438;13.240;2023-01-24T00:15:32;103513.44;;;2.18;77.85
75646;BME280;64237;52.438;13.240;2023-01-24T00:17:58;103514.44;;;2.17;77.67
75646;BME280;64237;52.438;13.240;2023-01-24T00:20:24;103517.97;;;2.30;78.11
75646;BME280;64237;52.438;13.240;2023-01-24T00:22:49;103526.50;;;2.25;78.52
75646;BME280;64237;52.438;13.240;2023-01-24T00:25:15;103524.38;;;2.18;77.66
75646;BME280;64237;52.438;13.240;2023-01-24T00:27:40;103527.63;;;2.23;78.36
75646;BME280;64237;52.438;13.240;2023-01-24T00:30:06;103525.16;;;2.31;77.36
75646;BME280;64237;52.438;13.240;2023-01-24T00:32:32;103528.88;;;2.30;77.67
75646;BME280;64237;52.438;13.240;2023-01-24T00:34:57;103523.13;;;2.11;77.60
75646;BME280;64237;52.438;13.240;2023-01-24T00:37:24;103520.28;;;2.12;77.70
75646;BME280;64237;52.438;13.240;2023-01-24T00:39:49;103518.19;;;2.27;77.92
75646;BME280;64237;52.438;13.240;2023-01-24T00:42:14;103521.50;;;2.08;76.61
75646;BME280;64237;52.438;13.240;2023-01-24T00:44:40;103513.97;;;2.23;77.62
75646;BME280;64237;52.438;13.240;2023-01-24T00:47:05;103522.13;;;2.12;78.14
75646;BME280;64237;52.438;13.240;2023-01-24T00:49:30;103521.16;;;2.13;78.48
75646;BME280;64237;52.438;13.240;2023-01-24T00:51:56;103523.81;;;2.01;78.07
75646;BME280;64237;52.438;13.240;2023-01-24T00:54:21;103514.88;;;1.99;78.04
75646;BME280;64237;52.438;13.240;2023-01-24T00:56:46;103518.59;;;1.98;77.65
75646;BME280;64237;52.438;13.240;2023-01-24T00:59:12;103507.31;;;1.92;78.55
75646;BME280;64237;52.438;13.240;2023-01-24T01:01:37;103514.63;;;2.02;78.17
75646;BME280;64237;52.438;13.240;2023-01-24T01:04:03;103516.16;;;2.06;78.90
75646;BME280;64237;52.438;13.240;2023-01-24T01:06:29;103507.44;;;2.01;77.87
75646;BME280;64237;52.438;13.240;2023-01-24T01:08:54;103516.38;;;2.03;78.26
75646;BME280;64237;52.438;13.240;2023-01-24T01:11:20;103519.63;;;2.09;78.64
75646;BME280;64237;52.438;13.240;2023-01-24T01:13:45;103511.25;;;1.88;78.30
75646;BME280;64237;52.438;13.240;2023-01-24T01:16:17;103510.84;;;1.81;79.03
75646;BME280;64237;52.438;13.240;2023-01-24T01:18:45;103514.97;;;1.87;79.79
75646;BME280;64237;52.438;13.240;2023-01-24T01:21:15;103518.81;;;1.95;78.97
75646;BME280;64237;52.438;13.240;2023-01-24T01:23:41;103524.00;;;2.11;78.17
75646;BME280;64237;52.438;13.240;2023-01-24T01:26:08;103530.56;;;2.09;78.28
75646;BME280;64237;52.438;13.240;2023-01-24T01:28:35;103528.34;;;2.14;78.33
75646;BME280;64237;52.438;13.240;2023-01-24T01:31:00;103523.13;;;2.11;78.10
75646;BME280;64237;52.438;13.240;2023-01-24T01:33:25;103524.09;;;2.10;77.73
75646;BME280;64237;52.438;13.240;2023-01-24T01:35:51;103523.34;;;2.08;79.93
75646;BME280;64237;52.438;13.240;2023-01-24T01:38:18;103528.50;;;1.88;78.20
75646;BME280;64237;52.438;13.240;2023-01-24T01:40:43;103528.25;;;1.91;78.61
75646;BME280;64237;52.438;13.240;2023-01-24T01:43:14;103529.50;;;1.98;76.98
75646;BME280;64237;52.438;13.240;2023-01-24T01:45:51;103538.31;;;1.91;77.29
75646;BME280;64237;52.438;13.240;2023-01-24T01:48:18;103537.22;;;1.93;77.93
75646;BME280;64237;52.438;13.240;2023-01-24T01:51:00;103539.97;;;2.04;78.31
75646;BME280;64237;52.438;13.240;2023-01-24T01:53:29;103540.66;;;1.95;77.29
75646;BME280;64237;52.438;13.240;2023-01-24T01:56:03;103531.03;;;2.02;77.44
75646;BME280;64237;52.438;13.240;2023-01-24T01:58:30;103523.06;;;1.99;77.38
75646;BME280;64237;52.438;13.240;2023-01-24T02:00:56;103531.47;;;1.85;78.02
75646;BME280;64237;52.438;13.240;2023-01-24T02:03:30;103528.91;;;1.71;77.29
75646;BME280;64237;52.438;13.240;2023-01-24T02:06:04;103535.38;;;1.70;78.55
75646;BME280;64237;52.438;13.240;2023-01-24T02:08:30;103534.66;;;1.79;77.70
75646;BME280;64237;52.438;13.240;2023-01-24T02:10:57;103538.94;;;1.94;76.79
75646;BME280;64237;52.438;13.240;2023-01-24T02:13:43;103542.41;;;1.96;76.40
75646;BME280;64237;52.438;13.240;2023-01-24T02:16:10;103539.34;;;1.77;76.01
75646;BME280;64237;52.438;13.240;2023-01-24T02:18:37;103540.34;;;1.76;76.59
75646;BME280;64237;52.438;13.240;2023-01-24T02:21:07;103533.41;;;1.72;77.13
75646;BME280;64237;52.438;13.240;2023-01-24T02:28:46;103543.78;;;1.67;76.20
75646;BME280;64237;52.438;13.240;2023-01-24T02:31:13;103551.59;;;1.48;76.71
75646;BME280;64237;52.438;13.240;2023-01-24T02:33:38;103546.16;;;1.48;77.31
75646;BME280;64237;52.438;13.240;2023-01-24T02:36:20;103537.66;;;1.40;77.26
75646;BME280;64237;52.438;13.240;2023-01-24T02:39:09;103547.34;;;1.44;77.42
75646;BME280;64237;52.438;13.240;2023-01-24T02:41:49;103544.09;;;1.38;76.53
75646;BME280;64237;52.438;13.240;2023-01-24T02:44:30;103554.28;;;1.60;78.04
75646;BME280;64237;52.438;13.240;2023-01-24T02:46:57;103553.50;;;1.58;77.22
75646;BME280;64237;52.438;13.240;2023-01-24T02:49:23;103538.84;;;1.48;76.10
75646;BME280;64237;52.438;13.240;2023-01-24T02:51:48;103540.22;;;1.54;77.46
75646;BME280;64237;52.438;13.240;2023-01-24T02:54:31;103554.59;;;1.56;77.25
75646;BME280;64237;52.438;13.240;2023-01-24T02:56:57;103538.00;;;1.59;76.91
75646;BME280;64237;52.438;13.240;2023-01-24T02:59:41;103554.16;;;1.62;76.95
75646;BME280;64237;52.438;13.240;2023-01-24T03:02:06;103532.66;;;1.33;77.54
75646;BME280;64237;52.438;13.240;2023-01-24T03:04:31;103534.38;;;1.34;77.05
75646;BME280;64237;52.438;13.240;2023-01-24T03:06:57;103534.63;;;1.31;77.56
75646;BME280;64237;52.438;13.240;2023-01-24T03:09:22;103538.63;;;1.38;76.63
75646;BME280;64237;52.438;13.240;2023-01-24T03:12:02;103539.84;;;1.34;76.92
75646;BME280;64237;52.438;13.240;2023-01-24T03:14:47;103544.78;;;1.53;76.92
75646;BME280;64237;52.438;13.240;2023-01-24T03:17:31;103538.47;;;1.53;77.50
75646;BME280;64237;52.438;13.240;2023-01-24T03:20:16;103535.00;;;1.51;76.65
75646;BME280;64237;52.438;13.240;2023-01-24T03:23:00;103553.28;;;1.61;77.20
75646;BME280;64237;52.438;13.240;2023-01-24T03:25:44;103544.19;;;1.50;77.73
75646;BME280;64237;52.438;13.240;2023-01-24T03:28:28;103538.47;;;1.53;77.33
75646;BME280;64237;52.438;13.240;2023-01-24T03:31:12;103548.03;;;1.34;76.01
75646;BME280;64237;52.438;13.240;2023-01-24T03:33:56;103541.97;;;1.55;77.27
75646;BME280;64237;52.438;13.240;2023-01-24T03:36:40;103539.31;;;1.66;76.50
75646;BME280;64237;52.438;13.240;2023-01-24T03:39:05;103546.38;;;1.45;76.89
75646;BME280;64237;52.438;13.240;2023-01-24T03:41:49;103539.97;;;1.57;76.71
75646;BME280;64237;52.438;13.240;2023-01-24T03:44:15;103541.28;;;1.64;76.75
75646;BME280;64237;52.438;13.240;2023-01-24T03:46:40;103533.41;;;1.35;76.27
75646;BME280;64237;52.438;13.240;2023-01-24T03:49:07;103540.69;;;1.48;76.57
75646;BME280;64237;52.438;13.240;2023-01-24T03:51:32;103523.72;;;1.31;74.87
75646;BME280;64237;52.438;13.240;2023-01-24T03:54:16;103539.41;;;1.41;76.08
75646;BME280;64237;52.438;13.240;2023-01-24T03:56:42;103529.56;;;1.51;75.99
75646;BME280;64237;52.438;13.240;2023-01-24T03:59:07;103533.13;;;1.27;75.54
75646;BME280;64237;52.438;13.240;2023-01-24T04:01:32;103538.53;;;1.40;78.17
75646;BME280;64237;52.438;13.240;2023-01-24T04:03:58;103541.19;;;1.29;75.50
75646;BME280;64237;52.438;13.240;2023-01-24T04:06:23;103524.19;;;1.25;75.00
75646;BME280;64237;52.438;13.240;2023-01-24T04:08:49;103529.16;;;1.31;76.37
75646;BME280;64237;52.438;13.240;2023-01-24T04:11:15;103533.00;;;1.53;74.70
75646;BME280;64237;52.438;13.240;2023-01-24T04:13:41;103535.91;;;1.38;74.93
75646;BME280;64237;52.438;13.240;2023-01-24T04:16:07;103530.22;;;1.42;75.53
75646;BME280;64237;52.438;13.240;2023-01-24T04:18:33;103530.91;;;1.32;75.53
75646;BME280;64237;52.438;13.240;2023-01-24T04:21:05;103521.97;;;1.30;75.48
75646;BME280;64237;52.438;13.240;2023-01-24T04:23:31;103518.97;;;1.22;75.51
75646;BME280;64237;52.438;13.240;2023-01-24T04:25:57;103533.56;;;1.21;76.10
75646;BME280;64237;52.438;13.240;2023-01-24T04:28:25;103536.84;;;1.26;74.69
75646;BME280;64237;52.438;13.240;2023-01-24T04:31:00;103534.88;;;1.28;75.36
75646;BME280;64237;52.438;13.240;2023-01-24T04:33:26;103536.06;;;1.24;76.14
75646;BME280;64237;52.438;13.240;2023-01-24T04:35:55;103535.00;;;1.14;75.97
75646;BME280;64237;52.438;13.240;2023-01-24T04:38:21;103539.47;;;1.15;75.68
75646;BME280;64237;52.438;13.240;2023-01-24T04:40:46;103531.59;;;1.23;76.87
75646;BME280;64237;52.438;13.240;2023-01-24T04:43:12;103535.53;;;1.19;75.47
75646;BME280;64237;52.438;13.240;2023-01-24T04:45:37;103519.84;;;1.23;75.83
75646;BME280;64237;52.438;13.240;2023-01-24T04:48:02;103530.47;;;1.38;74.67
75646;BME280;64237;52.438;13.240;2023-01-24T04:50:28;103513.72;;;1.19;75.53
75646;BME280;64237;52.438;13.240;2023-01-24T04:52:53;103513.06;;;1.16;74.98
75646;BME280;64237;52.438;13.240;2023-01-24T04:55:18;103529.41;;;1.28;75.59
75646;BME280;64237;52.438;13.240;2023-01-24T04:57:44;103517.63;;;1.28;75.47
75646;BME280;64237;52.438;13.240;2023-01-24T05:00:10;103524.84;;;1.29;75.43
75646;BME280;64237;52.438;13.240;2023-01-24T05:02:35;103514.59;;;1.20;75.04
75646;BME280;64237;52.438;13.240;2023-01-24T05:05:03;103522.50;;;1.35;76.01
75646;BME280;64237;52.438;13.240;2023-01-24T05:07:28;103523.03;;;1.41;74.97
75646;BME280;64237;52.438;13.240;2023-01-24T05:09:53;103524.78;;;1.42;75.26
75646;BME280;64237;52.438;13.240;2023-01-24T05:12:19;103514.94;;;1.15;74.31
75646;BME280;64237;52.438;13.240;2023-01-24T05:14:44;103524.19;;;1.13;75.60
75646;BME280;64237;52.438;13.240;2023-01-24T05:17:09;103521.25;;;1.28;75.30
75646;BME280;64237;52.438;13.240;2023-01-24T05:19:35;103513.94;;;1.16;74.66
75646;BME280;64237;52.438;13.240;2023-01-24T05:22:00;103517.63;;;1.28;74.57
75646;BME280;64237;52.438;13.240;2023-01-24T05:24:26;103515.47;;;1.20;75.23
75646;BME280;64237;52.438;13.240;2023-01-24T05:26:51;103514.06;;;1.15;74.68
75646;BME280;64237;52.438;13.240;2023-01-24T05:29:16;103523.88;;;1.17;75.82
75646;BME280;64237;52.438;13.240;2023-01-24T05:31:42;103516.13;;;1.11;74.71
75646;BME280;64237;52.438;13.240;2023-01-24T05:34:07;103525.06;;;1.13;76.24
75646;BME280;64237;52.438;13.240;2023-01-24T05:36:33;103522.50;;;0.99;74.89
75646;BME280;64237;52.438;13.240;2023-01-24T05:38:58;103521.84;;;1.08;75.42
75646;BME280;64237;52.438;13.240;2023-01-24T05:41:23;103520.91;;;1.20;75.77
75646;BME280;64237;52.438;13.240;2023-01-24T05:43:49;103527.41;;;1.30;75.59
75646;BME280;64237;52.438;13.240;2023-01-24T05:46:17;103540.06;;;1.31;75.19
75646;BME280;64237;52.438;13.240;2023-01-24T05:48:43;103530.09;;;1.19;74.91
75646;BME280;64237;52.438;13.240;2023-01-24T05:51:12;103530.53;;;1.13;75.20
75646;BME280;64237;52.438;13.240;2023-01-24T05:53:39;103536.63;;;1.17;75.04
75646;BME280;64237;52.438;13.240;2023-01-24T05:56:08;103541.00;;;1.19;74.63
75646;BME280;64237;52.438;13.240;2023-01-24T05:58:36;103531.59;;;1.23;74.80
75646;BME280;64237;52.438;13.240;2023-01-24T06:01:06;103540.78;;;1.22;74.28
75646;BME280;64237;52.438;13.240;2023-01-24T06:03:32;103548.19;;;1.20;74.62
75646;BME280;64237;52.438;13.240;2023-01-24T06:05:57;103547.75;;;1.26;73.72
75646;BME280;64237;52.438;13.240;2023-01-24T06:08:23;103547.53;;;1.17;74.95
75646;BME280;64237;52.438;13.240;2023-01-24T06:10:48;103553.09;;;1.15;74.94
75646;BME280;64237;52.438;13.240;2023-01-24T06:13:14;103559.03;;;1.33;74.19
75646;BME280;64237;52.438;13.240;2023-01-24T06:15:40;103552.97;;;1.29;75.42
75646;BME280;64237;52.438;13.240;2023-01-24T06:18:11;103562.13;;;3.80;86.75
75646;BME280;64237;52.438;13.240;2023-01-24T06:20:37;103562.72;;;2.62;72.09
75646;BME280;64237;52.438;13.240;2023-01-24T06:23:05;103555.16;;;2.20;71.39
75646;BME280;64237;52.438;13.240;2023-01-24T06:25:32;103559.97;;;1.81;72.13
75646;BME280;64237;52.438;13.240;2023-01-24T06:27:58;103564.63;;;1.68;73.01
75646;BME280;64237;52.438;13.240;2023-01-24T06:30:23;103570.09;;;1.55;74.61
75646;BME280;64237;52.438;13.240;2023-01-24T06:37:58;103575.94;;;1.51;73.50
75646;BME280;64237;52.438;13.240;2023-01-24T06:40:24;103580.47;;;1.63;72.86
75646;BME280;64237;52.438;13.240;2023-01-24T06:42:51;103586.25;;;1.58;74.30
75646;BME280;64237;52.438;13.240;2023-01-24T06:45:17;103573.47;;;1.22;73.77
75646;BME280;64237;52.438;13.240;2023-01-24T06:47:43;103587.78;;;1.26;74.00
75646;BME280;64237;52.438;13.240;2023-01-24T06:50:27;103589.41;;;1.28;74.51
75646;BME280;64237;52.438;13.240;2023-01-24T06:52:56;103594.75;;;1.30;75.17
75646;BME280;64237;52.438;13.240;2023-01-24T06:55:22;103585.25;;;1.23;73.99
75646;BME280;64237;52.438;13.240;2023-01-24T06:57:54;103602.84;;;1.06;73.90
75646;BME280;64237;52.438;13.240;2023-01-24T07:00:19;103604.88;;;1.15;74.00
75646;BME280;64237;52.438;13.240;2023-01-24T07:02:45;103584.16;;;1.13;74.68
75646;BME280;64237;52.438;13.240;2023-01-24T07:05:11;103602.72;;;1.20;75.24
75646;BME280;64237;52.438;13.240;2023-01-24T07:07:37;103586.34;;;1.20;75.56
75646;BME280;64237;52.438;13.240;2023-01-24T07:10:03;103599.00;;;1.21;75.00
75646;BME280;64237;52.438;13.240;2023-01-24T07:12:32;103607.06;;;1.10;74.14
75646;BME280;64237;52.438;13.240;2023-01-24T07:14:59;103600.13;;;1.06;75.41
75646;BME280;64237;52.438;13.240;2023-01-24T07:17:24;103619.06;;;1.20;75.01
75646;BME280;64237;52.438;13.240;2023-01-24T07:19:50;103620.19;;;1.05;74.65
75646;BME280;64237;52.438;13.240;2023-01-24T07:22:17;103620.41;;;1.02;75.32
75646;BME280;64237;52.438;13.240;2023-01-24T07:24:43;103624.66;;;1.06;74.60
75646;BME280;64237;52.438;13.240;2023-01-24T07:27:10;103631.38;;;1.13;75.29
75646;BME280;64237;52.438;13.240;2023-01-24T07:29:35;103624.53;;;1.08;75.17
75646;BME280;64237;52.438;13.240;2023-01-24T07:32:01;103622.34;;;1.00;74.69
75646;BME280;64237;52.438;13.240;2023-01-24T07:34:26;103622.16;;;1.03;75.57
75646;BME280;64237;52.438;13.240;2023-01-24T07:36:51;103634.13;;;1.13;75.53
75646;BME280;64237;52.438;13.240;2023-01-24T07:39:18;103627.78;;;1.25;75.87
75646;BME280;64237;52.438;13.240;2023-01-24T07:41:46;103636.84;;;1.13;75.70
75646;BME280;64237;52.438;13.240;2023-01-24T07:44:15;103627.81;;;1.00;74.44
75646;BME280;64237;52.438;13.240;2023-01-24T07:46:41;103633.25;;;1.25;74.94
75646;BME280;64237;52.438;13.240;2023-01-24T07:49:07;103631.50;;;1.24;74.68
75646;BME280;64237;52.438;13.240;2023-01-24T07:51:32;103625.63;;;1.05;74.84
75646;BME280;64237;52.438;13.240;2023-01-24T07:53:57;103625.72;;;1.16;74.24
75646;BME280;64237;52.438;13.240;2023-01-24T07:56:23;103628.66;;;1.13;74.26
75646;BME280;64237;52.438;13.240;2023-01-24T07:58:48;103626.47;;;1.18;75.36
75646;BME280;64237;52.438;13.240;2023-01-24T08:01:20;103630.75;;;1.22;74.06
75646;BME280;64237;52.438;13.240;2023-01-24T08:03:46;103626.25;;;1.21;74.83
75646;BME280;64237;52.438;13.240;2023-01-24T08:06:11;103626.25;;;1.09;74.26
75646;BME280;64237;52.438;13.240;2023-01-24T08:08:36;103633.25;;;1.25;74.33
75646;BME280;64237;52.438;13.240;2023-01-24T08:11:02;103642.59;;;1.47;74.87
75646;BME280;64237;52.438;13.240;2023-01-24T08:13:27;103635.41;;;1.33;73.81
75646;BME280;64237;52.438;13.240;2023-01-24T08:15:52;103643.47;;;1.47;73.84
75646;BME280;64237;52.438;13.240;2023-01-24T08:18:18;103640.91;;;1.57;73.48
75646;BME280;64237;52.438;13.240;2023-01-24T08:20:43;103650.72;;;1.59;73.30
75646;BME280;64237;52.438;13.240;2023-01-24T08:23:08;103655.66;;;1.54;73.40
75646;BME280;64237;52.438;13.240;2023-01-24T08:25:34;103652.31;;;1.51;72.88
75646;BME280;64237;52.438;13.240;2023-01-24T08:27:59;103659.84;;;1.47;74.80
75646;BME280;64237;52.438;13.240;2023-01-24T08:30:24;103660.69;;;1.48;73.71
75646;BME280;64237;52.438;13.240;2023-01-24T08:33:01;103652.59;;;1.59;73.16
75646;BME280;64237;52.438;13.240;2023-01-24T08:35:27;103648.44;;;1.53;73.10
75646;BME280;64237;52.438;13.240;2023-01-24T08:37:52;103650.84;;;1.58;72.65
75646;BME280;64237;52.438;13.240;2023-01-24T08:40:17;103649.41;;;1.65;73.79
75646;BME280;64237;52.438;13.240;2023-01-24T08:42:44;103652.81;;;1.68;73.21
75646;BME280;64237;52.438;13.240;2023-01-24T08:45:09;103648.72;;;1.74;72.71
75646;BME280;64237;52.438;13.240;2023-01-24T08:47:34;103642.06;;;1.78;73.26
75646;BME280;64237;52.438;13.240;2023-01-24T08:50:00;103644.13;;;1.75;72.15
75646;BME280;64237;52.438;13.240;2023-01-24T08:52:25;103645.78;;;1.77;72.99
75646;BME280;64237;52.438;13.240;2023-01-24T08:54:50;103643.34;;;1.85;72.87
75646;BME280;64237;52.438;13.240;2023-01-24T08:57:15;103642.81;;;1.80;74.03
75646;BME280;64237;52.438;13.240;2023-01-24T08:59:41;103641.88;;;1.68;72.86
75646;BME280;64237;52.438;13.240;2023-01-24T09:02:08;103646.31;;;1.46;72.82
75646;BME280;64237;52.438;13.240;2023-01-24T09:04:33;103646.00;;;1.74;73.55
75646;BME280;64237;52.438;13.240;2023-01-24T09:06:59;103646.06;;;1.85;73.60
75646;BME280;64237;52.438;13.240;2023-01-24T09:09:24;103638.56;;;1.76;73.33
75646;BME280;64237;52.438;13.240;2023-01-24T09:11:50;103643.25;;;1.74;72.49
75646;BME280;64237;52.438;13.240;2023-01-24T09:14:17;103643.56;;;1.82;72.39
75646;BME280;64237;52.438;13.240;2023-01-24T09:16:42;103649.72;;;1.97;72.10
75646;BME280;64237;52.438;13.240;2023-01-24T09:19:10;103651.13;;;2.02;72.44
75646;BME280;64237;52.438;13.240;2023-01-24T09:21:36;103660.72;;;2.08;71.00
75646;BME280;64237;52.438;13.240;2023-01-24T09:24:02;103653.19;;;2.12;73.12
75646;BME280;64237;52.438;13.240;2023-01-24T09:26:27;103654.81;;;2.14;72.39
75646;BME280;64237;52.438;13.240;2023-01-24T09:28:53;103651.38;;;1.99;71.89
75646;BME280;64237;52.438;13.240;2023-01-24T09:31:18;103656.19;;;1.96;72.29
75646;BME280;64237;52.438;13.240;2023-01-24T09:33:43;103659.66;;;1.98;71.94
75646;BME280;64237;52.438;13.240;2023-01-24T09:36:09;103660.31;;;2.01;72.53
75646;BME280;64237;52.438;13.240;2023-01-24T09:38:34;103659.19;;;1.80;73.21
75646;BME280;64237;52.438;13.240;2023-01-24T09:43:50;103665.84;;;1.76;72.63
75646;BME280;64237;52.438;13.240;2023-01-24T09:46:23;103666.31;;;1.70;73.00
75646;BME280;64237;52.438;13.240;2023-01-24T09:48:57;103656.56;;;1.91;73.04
75646;BME280;64237;52.438;13.240;2023-01-24T09:51:27;103661.47;;;1.86;72.53
75646;BME280;64237;52.438;13.240;2023-01-24T09:53:55;103660.16;;;1.92;71.89
75646;BME280;64237;52.438;13.240;2023-01-24T09:56:25;103652.72;;;1.94;73.14
75646;BME280;64237;52.438;13.240;2023-01-24T09:59:02;103657.72;;;2.24;72.44
75646;BME280;64237;52.438;13.240;2023-01-24T10:01:37;103655.44;;;2.18;72.55
75646;BME280;64237;52.438;13.240;2023-01-24T10:04:05;103640.09;;;2.28;71.45
75646;BME280;64237;52.438;13.240;2023-01-24T10:06:37;103640.75;;;2.31;72.02
75646;BME280;64237;52.438;13.240;2023-01-24T10:13:15;103635.59;;;3.30;65.96
75646;BME280;64237;52.438;13.240;2023-01-24T10:20:55;103623.56;;;2.64;70.17
75646;BME280;64237;52.438;13.240;2023-01-24T10:23:25;103616.34;;;2.52;71.55
75646;BME280;64237;52.438;13.240;2023-01-24T10:25:56;103611.88;;;2.51;69.91
75646;BME280;64237;52.438;13.240;2023-01-24T10:28:33;103614.44;;;2.41;71.74
75646;BME280;64237;52.438;13.240;2023-01-24T10:33:34;103607.16;;;2.53;72.06
75646;BME280;64237;52.438;13.240;2023-01-24T10:36:08;103618.03;;;2.31;70.92
75646;BME280;64237;52.438;13.240;2023-01-24T10:38:36;103604.50;;;2.40;71.25
75646;BME280;64237;52.438;13.240;2023-01-24T10:41:15;103602.53;;;2.42;71.49
75646;BME280;64237;52.438;13.240;2023-01-24T10:43:42;103609.16;;;2.51;71.64
75646;BME280;64237;52.438;13.240;2023-01-24T10:48:55;103611.44;;;2.68;70.39
75646;BME280;64237;52.438;13.240;2023-01-24T10:51:23;103618.63;;;2.69;69.66
75646;BME280;64237;52.438;13.240;2023-01-24T10:53:49;103622.50;;;2.78;70.47
75646;BME280;64237;52.438;13.240;2023-01-24T10:56:17;103612.88;;;2.61;71.78
75646;BME280;64237;52.438;13.240;2023-01-24T10:59:00;103608.56;;;2.70;70.87
75646;BME280;64237;52.438;13.240;2023-01-24T11:01:42;103617.13;;;2.65;70.48
75646;BME280;64237;52.438;13.240;2023-01-24T11:04:26;103622.59;;;2.65;71.98
75646;BME280;64237;52.438;13.240;2023-01-24T11:06:53;103615.88;;;2.58;70.23
75646;BME280;64237;52.438;13.240;2023-01-24T11:09:21;103612.16;;;2.59;71.68
75646;BME280;64237;52.438;13.240;2023-01-24T11:11:54;103609.78;;;2.55;70.40
75646;BME280;64237;52.438;13.240;2023-01-24T11:14:23;103617.22;;;2.53;70.23
75646;BME280;64237;52.438;13.240;2023-01-24T11:16:52;103608.38;;;2.38;70.57
75646;BME280;64237;52.438;13.240;2023-01-24T11:19:35;103616.34;;;2.52;71.61
75646;BME280;64237;52.438;13.240;2023-01-24T11:22:22;103618.63;;;2.69;71.11
75646;BME280;64237;52.438;13.240;2023-01-24T11:24:48;103607.81;;;2.57;70.86
75646;BME280;64237;52.438;13.240;2023-01-24T11:27:15;103608.69;;;2.68;71.39
75646;BME280;64237;52.438;13.240;2023-01-24T11:29:40;103609.31;;;2.72;71.59
75646;BME280;64237;52.438;13.240;2023-01-24T11:59:50;103586.06;;;2.66;71.42
75646;BME280;64237;52.438;13.240;2023-01-24T12:11:25;103578.09;;;2.52;71.92
75646;BME280;64237;52.438;13.240;2023-01-24T12:14:00;103583.22;;;2.57;71.34
75646;BME280;64237;52.438;13.240;2023-01-24T12:22:19;103564.34;;;2.65;72.42
75646;BME280;64237;52.438;13.240;2023-01-24T12:24:51;103560.59;;;2.55;70.15
75646;BME280;64237;52.438;13.240;2023-01-24T12:27:22;103560.84;;;2.52;71.62
75646;BME280;64237;52.438;13.240;2023-01-24T12:29:57;103565.31;;;2.64;71.10
75646;BME280;64237;52.438;13.240;2023-01-24T12:32:42;103563.84;;;2.60;70.87
75646;BME280;64237;52.438;13.240;2023-01-24T12:40:56;103559.22;;;2.60;72.75
75646;BME280;64237;52.438;13.240;2023-01-24T12:48:53;103561.34;;;2.68;70.46
75646;BME280;64237;52.438;13.240;2023-01-24T12:51:28;103565.72;;;2.70;72.45
75646;BME280;64237;52.438;13.240;2023-01-24T12:54:16;103572.44;;;2.78;70.74
75646;BME280;64237;52.438;13.240;2023-01-24T12:56:53;103574.94;;;2.81;70.84
75646;BME280;64237;52.438;13.240;2023-01-24T12:59:24;103568.59;;;2.80;72.77
75646;BME280;64237;52.438;13.240;2023-01-24T13:12:26;103558.13;;;2.63;71.47
75646;BME280;64237;52.438;13.240;2023-01-24T13:14:55;103564.97;;;2.68;70.61
75646;BME280;64237;52.438;13.240;2023-01-24T13:20:18;103562.47;;;2.65;71.10
75646;BME280;64237;52.438;13.240;2023-01-24T13:23:04;103560.59;;;2.55;70.92
75646;BME280;64237;52.438;13.240;2023-01-24T13:25:52;103556.13;;;2.65;70.97
75646;BME280;64237;52.438;13.240;2023-01-24T13:34:05;103560.00;;;2.85;70.29
75646;BME280;64237;52.438;13.240;2023-01-24T13:36:36;103555.91;;;2.90;72.03
75646;BME280;64237;52.438;13.240;2023-01-24T13:39:04;103546.34;;;2.85;71.56
75646;BME280;64237;52.438;13.240;2023-01-24T13:43:59;103544.59;;;2.84;71.85
75646;BME280;64237;52.438;13.240;2023-01-24T13:51:54;103542.63;;;2.86;70.49
75646;BME280;64237;52.438;13.240;2023-01-24T13:54:21;103533.41;;;2.87;69.95
75646;BME280;64237;52.438;13.240;2023-01-24T13:59:40;103539.66;;;3.00;71.44
75646;BME280;64237;52.438;13.240;2023-01-24T14:02:27;103544.34;;;2.87;71.70
75646;BME280;64237;52.438;13.240;2023-01-24T14:04:53;103545.59;;;2.94;70.04
75646;BME280;64237;52.438;13.240;2023-01-24T14:07:26;103550.56;;;2.89;71.30
75646;BME280;64237;52.438;13.240;2023-01-24T14:10:04;103549.81;;;2.87;71.50
75646;BME280;64237;52.438;13.240;2023-01-24T14:12:33;103540.88;;;2.85;71.28
75646;BME280;64237;52.438;13.240;2023-01-24T14:20:22;103537.63;;;2.68;70.33
75646;BME280;64237;52.438;13.240;2023-01-24T14:22:52;103544.09;;;2.67;71.66
75646;BME280;64237;52.438;13.240;2023-01-24T14:25:26;103541.88;;;2.72;71.57
75646;BME280;64237;52.438;13.240;2023-01-24T14:28:15;103544.88;;;2.81;71.14
75646;BME280;64237;52.438;13.240;2023-01-24T14:31:04;103541.13;;;2.82;70.86
75646;BME280;64237;52.438;13.240;2023-01-24T14:33:39;103545.34;;;2.74;70.77
75646;BME280;64237;52.438;13.240;2023-01-24T14:36:27;103545.34;;;2.74;70.81
75646;BME280;64237;52.438;13.240;2023-01-24T14:39:22;103545.13;;;2.78;70.68
75646;BME280;64237;52.438;13.240;2023-01-24T14:41:51;103544.47;;;2.74;70.20
75646;BME280;64237;52.438;13.240;2023-01-24T14:44:29;103544.47;;;2.74;70.96
75646;BME280;64237;52.438;13.240;2023-01-24T14:46:59;103545.59;;;2.71;70.65
75646;BME280;64237;52.438;13.240;2023-01-24T14:51:56;103546.31;;;2.62;72.23
75646;BME280;64237;52.438;13.240;2023-01-24T14:54:23;103542.09;;;2.69;71.85
75646;BME280;64237;52.438;13.240;2023-01-24T14:56:49;103546.31;;;2.62;71.58
75646;BME280;64237;52.438;13.240;2023-01-24T14:59:19;103539.50;;;2.57;71.68